Talmadge, Maine
Current Conditions -  °F | °C
As of 12:53 AM on Wednesday 22 Oct 2014 (Local Time) from KHUL Reporting Station
Overcast Overcast  
Wind Chill:   Ceiling: 3600
Heat Index:   Visibility: 10mi
Dew Point:   Wind: 3mph
Humidity: 73%   Direction: 350°N
Pressure: 30.26"   Gusts: NA
Location:  45.3759°N, 67.6018°W
Report Text: KHUL 220453Z AUTO 35003KT 10SM OVC036 06/01 A3026 RMK AO2 SLP252 T00560011 400831044
Loading
Personal Weather Stations






























Interactive Weather Map
Tropical Storm Tracking
New forecast layout! Learn more

10-Day Weather Forecast

Advertisements
Track Severe Weather on mobile